createdAt,value
2019-05-20T00:00:31.396Z,99650.70
2019-05-20T00:02:57.546Z,99649.41
2019-05-20T00:05:24.026Z,99645.94
2019-05-20T00:07:50.227Z,99641.14
2019-05-20T00:10:16.604Z,99645.50
2019-05-20T00:12:42.825Z,99644.64
2019-05-20T00:15:09.178Z,99642.42
2019-05-20T00:17:35.396Z,99644.18
2019-05-20T00:20:03.654Z,99648.57
2019-05-20T00:22:29.779Z,99645.95
2019-05-20T00:24:55.879Z,99642.02
2019-05-20T00:27:22.124Z,99644.64
2019-05-20T00:29:48.554Z,99646.80
2019-05-20T00:32:15.743Z,99648.55
2019-05-20T00:34:42.175Z,99650.75
2019-05-20T00:37:08.483Z,99648.99
2019-05-20T00:39:34.887Z,99649.00
2019-05-20T00:42:01.036Z,99649.01
2019-05-20T00:44:27.388Z,99649.44
2019-05-20T00:46:53.622Z,99651.58
2019-05-20T00:49:19.934Z,99655.97
2019-05-20T00:51:46.278Z,99661.64
2019-05-20T00:54:12.586Z,99655.97
2019-05-20T00:56:38.925Z,99649.42
2019-05-20T00:59:05.573Z,99642.02
2019-05-20T01:01:32.037Z,99651.56
2019-05-20T01:03:58.140Z,99646.77
2019-05-20T01:06:24.741Z,99644.55
2019-05-20T01:08:51.061Z,99644.59
2019-05-20T01:11:17.306Z,99649.77
2019-05-20T01:13:43.735Z,99645.43
2019-05-20T01:16:10.101Z,99647.23
2019-05-20T01:18:36.341Z,99645.47
2019-05-20T01:21:02.559Z,99642.82
2019-05-20T01:23:28.777Z,99646.77
2019-05-20T01:25:54.967Z,99653.30
2019-05-20T01:28:21.113Z,99660.67
2019-05-20T01:30:47.337Z,99663.74
2019-05-20T01:33:14.464Z,99660.28
2019-05-20T01:35:40.902Z,99646.71
2019-05-20T01:38:07.292Z,99646.27
2019-05-20T01:40:33.576Z,99642.78
2019-05-20T01:42:59.738Z,99639.33
2019-05-20T01:45:26.036Z,99631.07
2019-05-20T01:47:52.129Z,99628.88
2019-05-20T01:50:18.528Z,99640.08
2019-05-20T01:52:44.779Z,99643.48
2019-05-20T01:55:11.181Z,99643.66
2019-05-20T01:57:37.265Z,99656.95
2019-05-20T02:00:06.297Z,99662.98
2019-05-20T02:02:33.485Z,99659.59
2019-05-20T02:04:59.597Z,99675.36
2019-05-20T02:07:25.910Z,99676.62
2019-05-20T02:09:52.122Z,99681.01
2019-05-20T02:12:18.579Z,99681.97
2019-05-20T02:14:46.843Z,99688.50
2019-05-20T02:17:13.095Z,99690.69
2019-05-20T02:19:39.388Z,99682.81
2019-05-20T02:22:05.780Z,99679.27
2019-05-20T02:24:31.991Z,99669.66
2019-05-20T02:26:58.117Z,99660.89
2019-05-20T02:29:24.275Z,99667.83
2019-05-20T02:31:51.349Z,99666.39
2019-05-20T02:34:17.494Z,99665.16
2019-05-20T02:36:43.604Z,99663.34
2019-05-20T02:39:09.874Z,99655.47
2019-05-20T02:41:36.218Z,99651.77
2019-05-20T02:44:02.437Z,99648.41
2019-05-20T02:46:28.646Z,99650.66
2019-05-20T02:48:54.779Z,99649.70
2019-05-20T02:51:29.975Z,99653.58
2019-05-20T02:53:56.108Z,99652.75
2019-05-20T02:56:23.422Z,99660.69
2019-05-20T02:58:49.661Z,99658.98
2019-05-20T03:01:16.046Z,99649.05
2019-05-20T03:03:42.291Z,99651.96
2019-05-20T03:06:08.633Z,99649.31
2019-05-20T03:08:34.733Z,99648.00
2019-05-20T03:11:01.262Z,99647.48
2019-05-20T03:13:27.490Z,99653.44
2019-05-20T03:15:53.733Z,99657.78
2019-05-20T03:18:19.966Z,99658.20
2019-05-20T03:20:46.175Z,99663.11
2019-05-20T03:23:12.328Z,99662.05
2019-05-20T03:25:38.641Z,99676.94
2019-05-20T03:28:04.875Z,99685.80
2019-05-20T03:30:31.128Z,99687.10
2019-05-20T03:32:57.365Z,99695.47
2019-05-20T03:35:23.721Z,99690.90
2019-05-20T03:37:49.916Z,99690.11
2019-05-20T03:40:16.223Z,99694.98
2019-05-20T03:42:42.455Z,99690.98
2019-05-20T03:45:08.785Z,99689.13
2019-05-20T03:47:35.250Z,99690.88
2019-05-20T03:50:01.618Z,99694.48
2019-05-20T03:52:28.061Z,99700.55
2019-05-20T03:54:54.155Z,99708.30
2019-05-20T03:57:20.497Z,99717.41
2019-05-20T03:59:47.113Z,99713.61
2019-05-20T04:02:13.332Z,99717.29
2019-05-20T04:04:39.553Z,99723.34
2019-05-20T04:07:05.789Z,99725.09
2019-05-20T04:09:32.041Z,99722.58
2019-05-20T04:11:58.258Z,99717.87
2019-05-20T04:14:24.403Z,99708.38
2019-05-20T04:16:51.693Z,99711.02
2019-05-20T04:19:18.054Z,99715.34
2019-05-20T04:21:45.319Z,99711.48
2019-05-20T04:24:11.701Z,99707.66
2019-05-20T04:26:38.009Z,99704.64
2019-05-20T04:29:04.329Z,99699.42
2019-05-20T04:31:30.523Z,99692.05
2019-05-20T04:33:56.729Z,99689.89
2019-05-20T04:36:22.850Z,99696.00
2019-05-20T04:38:48.962Z,99693.84
2019-05-20T04:41:15.306Z,99699.52
2019-05-20T04:43:41.504Z,99694.72
2019-05-20T04:46:07.736Z,99684.72
2019-05-20T04:48:33.881Z,99680.37
2019-05-20T04:51:00.207Z,99682.09
2019-05-20T04:53:26.658Z,99689.93
2019-05-20T04:55:52.900Z,99697.78
2019-05-20T04:58:19.333Z,99693.86
2019-05-20T05:00:49.321Z,99694.30
2019-05-20T05:03:15.447Z,99700.37
2019-05-20T05:05:41.766Z,99704.77
2019-05-20T05:08:09.286Z,99696.05
2019-05-20T05:10:35.569Z,99700.39
2019-05-20T05:13:01.904Z,99702.05
2019-05-20T05:15:28.224Z,99702.49
2019-05-20T05:17:54.556Z,99701.17
2019-05-20T05:20:20.896Z,99699.51
2019-05-20T05:22:47.236Z,99698.58
2019-05-20T05:25:13.614Z,99692.92
2019-05-20T05:27:39.992Z,99701.23
2019-05-20T05:30:06.633Z,99700.84
2019-05-20T05:32:39.907Z,99705.20
2019-05-20T05:35:06.248Z,99705.64
2019-05-20T05:37:32.538Z,99710.44
2019-05-20T05:39:58.867Z,99717.38
2019-05-20T05:42:24.993Z,99725.64
2019-05-20T05:44:51.110Z,99723.91
2019-05-20T05:47:17.354Z,99733.52
2019-05-20T05:49:43.633Z,99730.91
2019-05-20T05:52:09.921Z,99728.72
2019-05-20T05:54:36.035Z,99733.08
2019-05-20T05:57:02.337Z,99730.91
2019-05-20T05:59:28.486Z,99727.41
2019-05-20T06:01:54.571Z,99733.50
2019-05-20T06:04:20.684Z,99732.64
2019-05-20T06:06:47.059Z,99735.22
2019-05-20T06:09:13.171Z,99743.93
2019-05-20T06:11:39.440Z,99743.53
2019-05-20T06:14:05.659Z,99738.74
2019-05-20T06:16:36.341Z,99754.87
2019-05-20T06:19:01.014Z,99746.59
2019-05-20T06:21:27.429Z,99747.91
2019-05-20T06:23:53.625Z,99753.14
2019-05-20T06:26:19.752Z,99760.95
2019-05-20T06:28:45.872Z,99758.80
2019-05-20T06:31:12.242Z,99762.27
2019-05-20T06:33:38.569Z,99764.45
2019-05-20T06:36:04.791Z,99759.23
2019-05-20T06:38:35.942Z,99754.86
2019-05-20T06:41:04.438Z,99755.30
2019-05-20T06:43:30.761Z,99763.13
2019-05-20T06:45:56.875Z,99759.23
2019-05-20T06:48:23.221Z,99759.66
2019-05-20T06:50:49.337Z,99758.77
2019-05-20T06:53:15.586Z,99767.06
2019-05-20T06:55:41.688Z,99765.77
2019-05-20T06:58:07.904Z,99777.52
2019-05-20T07:00:36.070Z,99788.42
2019-05-20T07:03:03.324Z,99788.86
2019-05-20T07:05:29.462Z,99791.91
2019-05-20T07:07:56.021Z,99795.85
2019-05-20T07:10:22.127Z,99798.02
2019-05-20T07:12:48.432Z,99796.27
2019-05-20T07:15:14.844Z,99791.00
2019-05-20T07:17:41.185Z,99787.89
2019-05-20T07:20:07.855Z,99791.85
2019-05-20T07:22:34.047Z,99791.88
2019-05-20T07:25:00.490Z,99797.56
2019-05-20T07:27:26.688Z,99789.28
2019-05-20T07:29:52.929Z,99795.84
2019-05-20T07:32:19.347Z,99790.61
2019-05-20T07:34:45.565Z,99796.25
2019-05-20T07:37:11.878Z,99798.87
2019-05-20T07:39:39.015Z,99802.37
2019-05-20T07:42:05.323Z,99801.07
2019-05-20T07:44:31.619Z,99800.67
2019-05-20T07:46:57.992Z,99797.17
2019-05-20T07:49:24.289Z,99799.78
2019-05-20T07:51:51.075Z,99798.91
2019-05-20T07:54:18.410Z,99796.73
2019-05-20T07:56:46.521Z,99807.59
2019-05-20T07:59:16.046Z,99801.95
2019-05-20T08:01:43.316Z,99799.78
2019-05-20T08:04:09.660Z,99794.58
2019-05-20T08:06:36.176Z,99793.22
2019-05-20T08:09:05.302Z,99790.20
2019-05-20T08:11:31.918Z,99787.55
2019-05-20T08:13:58.285Z,99787.56
2019-05-20T08:16:24.790Z,99798.91
2019-05-20T08:18:51.228Z,99802.39
2019-05-20T08:21:17.491Z,99808.48
2019-05-20T08:23:43.897Z,99810.22
2019-05-20T08:26:10.242Z,99812.87
2019-05-20T08:28:36.517Z,99816.78
2019-05-20T08:31:02.927Z,99818.95
2019-05-20T08:33:29.615Z,99816.31
2019-05-20T08:35:55.825Z,99822.89
2019-05-20T08:38:22.071Z,99823.31
2019-05-20T08:40:48.914Z,99825.02
2019-05-20T08:43:15.325Z,99823.28
2019-05-20T08:45:41.538Z,99832.87
2019-05-20T08:48:07.780Z,99826.78
2019-05-20T08:50:34.001Z,99827.65
2019-05-20T08:53:00.237Z,99831.13
2019-05-20T08:55:26.664Z,99829.32
2019-05-20T08:57:53.098Z,99825.79
2019-05-20T09:00:23.716Z,99836.64
2019-05-20T09:02:49.447Z,99836.21
2019-05-20T09:05:15.719Z,99831.80
2019-05-20T09:07:42.133Z,99826.14
2019-05-20T09:10:08.570Z,99828.27
2019-05-20T09:12:34.787Z,99833.48
2019-05-20T09:15:01.167Z,99829.57
2019-05-20T09:17:27.627Z,99825.55
2019-05-20T09:19:53.773Z,99821.57
2019-05-20T09:22:20.150Z,99828.13
2019-05-20T09:24:46.560Z,99834.31
2019-05-20T09:27:12.765Z,99833.45
2019-05-20T09:29:39.105Z,99834.41
2019-05-20T09:32:05.598Z,99825.70
2019-05-20T09:34:32.058Z,99819.59
2019-05-20T09:36:58.420Z,99818.57
2019-05-20T09:39:24.547Z,99812.34
2019-05-20T09:41:50.868Z,99817.06
2019-05-20T09:44:17.177Z,99821.89
2019-05-20T09:46:43.395Z,99820.52
2019-05-20T09:49:09.641Z,99820.97
2019-05-20T09:51:35.801Z,99823.63
2019-05-20T09:54:02.127Z,99824.15
2019-05-20T09:56:28.338Z,99830.68
2019-05-20T09:58:54.557Z,99835.42
2019-05-20T10:01:20.970Z,99838.25
2019-05-20T10:03:47.302Z,99836.91
2019-05-20T10:06:13.612Z,99840.41
2019-05-20T10:08:44.819Z,99834.56
2019-05-20T10:11:08.069Z,99837.50
2019-05-20T10:13:35.494Z,99844.41
2019-05-20T10:16:03.267Z,99847.04
2019-05-20T10:18:37.251Z,99849.27
2019-05-20T10:20:57.772Z,99847.16
2019-05-20T10:23:24.204Z,99847.20
2019-05-20T10:25:50.392Z,99846.23
2019-05-20T10:28:16.717Z,99840.56
2019-05-20T10:30:42.891Z,99841.34
2019-05-20T10:33:10.442Z,99834.58
2019-05-20T10:35:37.367Z,99832.98
2019-05-20T10:38:03.692Z,99831.20
2019-05-20T10:40:29.837Z,99830.71
2019-05-20T10:42:57.029Z,99832.71
2019-05-20T10:45:23.137Z,99836.41
2019-05-20T10:47:49.367Z,99835.14
2019-05-20T10:50:15.749Z,99839.41
2019-05-20T10:52:42.067Z,99831.39
2019-05-20T10:55:08.635Z,99837.02
2019-05-20T10:57:34.973Z,99835.02
2019-05-20T11:00:01.820Z,99832.17
2019-05-20T11:02:31.282Z,99840.83
2019-05-20T11:04:57.332Z,99837.14
2019-05-20T11:07:23.583Z,99837.23
2019-05-20T11:09:50.110Z,99838.42
2019-05-20T11:12:16.441Z,99835.66
2019-05-20T11:14:42.840Z,99839.88
2019-05-20T11:17:09.131Z,99836.84
2019-05-20T11:19:35.267Z,99837.41
2019-05-20T11:22:01.610Z,99837.80
2019-05-20T11:24:27.825Z,99828.91
2019-05-20T11:26:54.210Z,99835.73
2019-05-20T11:29:20.506Z,99835.38
2019-05-20T11:31:46.835Z,99833.06
2019-05-20T11:34:13.045Z,99827.92
2019-05-20T11:36:39.182Z,99826.31
2019-05-20T11:39:07.378Z,99832.53
2019-05-20T11:41:52.920Z,99834.46
2019-05-20T11:44:02.300Z,99831.56
2019-05-20T11:46:28.520Z,99835.84
2019-05-20T11:48:54.756Z,99832.42
2019-05-20T11:51:20.839Z,99832.16
2019-05-20T11:53:47.009Z,99821.23
2019-05-20T11:56:13.144Z,99815.45
2019-05-20T11:58:39.496Z,99818.72
2019-05-20T12:01:06.325Z,99819.06
2019-05-20T12:03:32.612Z,99817.92
2019-05-20T12:05:59.030Z,99823.22
2019-05-20T12:08:25.221Z,99823.80
2019-05-20T12:10:51.443Z,99826.05
2019-05-20T12:13:17.647Z,99823.33
2019-05-20T12:15:43.866Z,99822.06
2019-05-20T12:18:10.093Z,99820.28
2019-05-20T12:20:36.303Z,99812.55
2019-05-20T12:23:02.661Z,99813.13
2019-05-20T12:25:28.771Z,99805.49
2019-05-20T12:27:56.340Z,99805.95
2019-05-20T12:30:23.473Z,99807.48
2019-05-20T12:32:49.706Z,99808.40
2019-05-20T12:35:15.828Z,99797.33
2019-05-20T12:37:45.488Z,99801.15
2019-05-20T12:40:10.492Z,99795.73
2019-05-20T12:42:36.911Z,99794.24
2019-05-20T12:45:07.488Z,99797.45
2019-05-20T12:47:33.677Z,99798.06
2019-05-20T12:49:59.939Z,99797.63
2019-05-20T12:52:26.156Z,99787.35
2019-05-20T12:55:06.644Z,99783.30
2019-05-20T12:57:20.651Z,99778.05
2019-05-20T12:59:47.036Z,99775.09
2019-05-20T13:02:17.303Z,99777.89
2019-05-20T13:04:41.233Z,99775.38
2019-05-20T13:07:07.343Z,99774.22
2019-05-20T13:09:33.787Z,99780.30
2019-05-20T13:11:59.930Z,99775.94
2019-05-20T13:14:26.140Z,99776.19
2019-05-20T13:16:52.320Z,99774.84
2019-05-20T13:19:18.489Z,99777.80
2019-05-20T13:21:44.590Z,99781.06
2019-05-20T13:24:10.704Z,99780.80
2019-05-20T13:26:37.120Z,99783.33
2019-05-20T13:29:03.680Z,99786.80
2019-05-20T13:31:29.920Z,99782.78
2019-05-20T13:33:56.062Z,99779.99
2019-05-20T13:36:22.307Z,99778.13
2019-05-20T13:38:48.414Z,99779.22
2019-05-20T13:41:15.875Z,99775.17
2019-05-20T13:43:42.245Z,99781.43
2019-05-20T13:46:08.560Z,99783.22
2019-05-20T13:48:34.790Z,99778.20
2019-05-20T13:51:01.031Z,99781.54
2019-05-20T13:53:27.278Z,99785.95
2019-05-20T13:55:53.639Z,99786.78
2019-05-20T13:58:19.882Z,99784.28
2019-05-20T14:00:46.119Z,99785.05
2019-05-20T14:03:12.366Z,99780.69
2019-05-20T14:05:38.716Z,99778.16
2019-05-20T14:08:04.863Z,99781.05
2019-05-20T14:10:31.123Z,99771.43
2019-05-20T14:12:57.233Z,99777.73
2019-05-20T14:15:23.570Z,99770.66
2019-05-20T14:17:50.062Z,99768.98
2019-05-20T14:20:16.762Z,99761.50
2019-05-20T14:22:45.599Z,99762.84
2019-05-20T14:25:12.972Z,99752.97
2019-05-20T14:27:39.328Z,99749.70
2019-05-20T14:30:07.395Z,99748.36
2019-05-20T14:32:34.202Z,99748.42
2019-05-20T14:35:00.393Z,99736.02
2019-05-20T14:37:26.490Z,99734.19
2019-05-20T14:39:52.690Z,99729.47
2019-05-20T14:42:18.928Z,99733.55
2019-05-20T14:44:45.051Z,99730.97
2019-05-20T14:47:11.433Z,99733.44
2019-05-20T14:49:37.838Z,99724.36
2019-05-20T14:52:04.148Z,99732.41
2019-05-20T14:54:30.253Z,99731.66
2019-05-20T14:56:56.567Z,99731.59
2019-05-20T14:59:22.681Z,99729.71
2019-05-20T15:01:49.038Z,99728.39
2019-05-20T15:04:15.293Z,99723.89
2019-05-20T15:06:41.754Z,99716.19
2019-05-20T15:09:07.975Z,99723.03
2019-05-20T15:11:38.116Z,99723.59
2019-05-20T15:14:02.769Z,99727.72
2019-05-20T15:16:29.218Z,99727.70
2019-05-20T15:18:55.660Z,99728.32
2019-05-20T15:21:21.980Z,99720.38
2019-05-20T15:23:48.357Z,99720.81
2019-05-20T15:26:14.739Z,99705.98
2019-05-20T15:28:40.892Z,99703.66
2019-05-20T15:31:07.137Z,99711.33
2019-05-20T15:33:33.476Z,99713.74
2019-05-20T15:35:59.857Z,99710.08
2019-05-20T15:38:26.110Z,99710.53
2019-05-20T15:40:52.206Z,99706.19
2019-05-20T15:43:18.418Z,99710.48
2019-05-20T15:45:44.616Z,99719.30
2019-05-20T15:48:10.829Z,99719.00
2019-05-20T15:50:36.970Z,99719.63
2019-05-20T15:53:03.542Z,99717.36
2019-05-20T15:55:29.879Z,99720.02
2019-05-20T15:57:56.039Z,99711.67
2019-05-20T16:00:22.468Z,99711.91
2019-05-20T16:02:48.820Z,99714.84
2019-05-20T16:05:15.166Z,99709.56
2019-05-20T16:07:41.537Z,99701.19
2019-05-20T16:10:08.247Z,99699.92
2019-05-20T16:12:34.879Z,99691.41
2019-05-20T16:15:01.398Z,99697.42
2019-05-20T16:17:27.819Z,99706.14
2019-05-20T16:19:54.267Z,99698.08
2019-05-20T16:22:20.446Z,99705.55
2019-05-20T16:24:46.672Z,99705.05
2019-05-20T16:27:12.837Z,99710.00
2019-05-20T16:29:39.309Z,99710.25
2019-05-20T16:32:05.661Z,99708.40
2019-05-20T16:34:31.870Z,99708.75
2019-05-20T16:36:59.282Z,99720.80
2019-05-20T16:39:25.546Z,99721.72
2019-05-20T16:41:51.942Z,99717.66
2019-05-20T16:44:18.398Z,99719.73
2019-05-20T16:46:44.622Z,99717.56
2019-05-20T16:49:11.005Z,99709.36
2019-05-20T16:51:37.676Z,99701.93
2019-05-20T16:54:04.087Z,99699.45
2019-05-20T16:56:30.369Z,99691.45
2019-05-20T16:58:56.695Z,99690.98
2019-05-20T17:01:23.069Z,99698.53
2019-05-20T17:03:49.295Z,99705.64
2019-05-20T17:06:16.752Z,99718.83
2019-05-20T17:08:43.014Z,99724.89
2019-05-20T17:11:09.281Z,99731.71
2019-05-20T17:13:35.710Z,99733.55
2019-05-20T17:16:02.231Z,99741.02
2019-05-20T17:18:28.574Z,99749.14
2019-05-20T17:20:55.069Z,99756.12
2019-05-20T17:23:21.286Z,99756.58
2019-05-20T17:25:50.704Z,99764.85
2019-05-20T17:28:15.858Z,99760.34
2019-05-20T17:30:45.511Z,99763.84
2019-05-20T17:33:10.677Z,99769.57
2019-05-20T17:35:36.921Z,99779.17
2019-05-20T17:38:03.403Z,99768.20
2019-05-20T17:40:29.735Z,99770.84
2019-05-20T17:42:56.058Z,99761.22
2019-05-20T17:45:22.607Z,99771.02
2019-05-20T17:47:49.066Z,99767.88
2019-05-20T17:50:15.501Z,99760.52
2019-05-20T17:52:41.741Z,99764.20
2019-05-20T17:55:08.164Z,99772.03
2019-05-20T17:57:34.490Z,99766.00
2019-05-20T18:00:01.132Z,99763.06
2019-05-20T18:02:27.477Z,99752.34
2019-05-20T18:04:53.707Z,99748.28
2019-05-20T18:07:20.029Z,99749.22
2019-05-20T18:09:48.804Z,99753.55
2019-05-20T18:12:15.197Z,99759.45
2019-05-20T18:14:42.268Z,99764.17
2019-05-20T18:17:08.657Z,99770.81
2019-05-20T18:19:34.988Z,99772.75
2019-05-20T18:22:01.296Z,99768.98
2019-05-20T18:24:27.750Z,99761.58
2019-05-20T18:26:54.057Z,99750.92
2019-05-20T18:29:20.411Z,99738.06
2019-05-20T18:31:47.598Z,99738.83
2019-05-20T18:34:14.060Z,99736.41
2019-05-20T18:36:40.722Z,99738.06
2019-05-20T18:39:07.192Z,99740.83
2019-05-20T18:41:33.503Z,99735.19
2019-05-20T18:43:59.887Z,99734.80
2019-05-20T18:46:26.171Z,99736.58
2019-05-20T18:48:52.379Z,99735.70
2019-05-20T18:51:18.637Z,99728.56
2019-05-20T18:53:45.492Z,99733.40
2019-05-20T18:56:11.774Z,99739.11
2019-05-20T18:58:38.111Z,99735.02
2019-05-20T19:01:04.974Z,99729.34
2019-05-20T19:03:31.668Z,99733.47
2019-05-20T19:05:58.101Z,99728.60
2019-05-20T19:08:25.658Z,99731.29
2019-05-20T19:10:51.934Z,99735.72
2019-05-20T19:13:18.290Z,99741.46
2019-05-20T19:15:44.537Z,99745.41
2019-05-20T19:18:10.894Z,99748.03
2019-05-20T19:20:37.224Z,99741.16
2019-05-20T19:23:03.573Z,99746.50
2019-05-20T19:25:37.420Z,99754.82
2019-05-20T19:27:58.327Z,99749.55
2019-05-20T19:30:24.885Z,99751.34
2019-05-20T19:32:51.414Z,99752.79
2019-05-20T19:35:17.945Z,99748.53
2019-05-20T19:37:44.519Z,99745.83
2019-05-20T19:40:11.341Z,99753.27
2019-05-20T19:42:39.116Z,99751.22
2019-05-20T19:45:07.088Z,99749.53
2019-05-20T19:47:33.588Z,99753.86
2019-05-20T19:50:00.142Z,99750.52
2019-05-20T19:52:26.283Z,99761.86
2019-05-20T19:54:52.770Z,99763.08
2019-05-20T19:57:19.370Z,99767.09
2019-05-20T19:59:45.682Z,99767.95
2019-05-20T20:02:17.388Z,99767.13
2019-05-20T20:04:40.102Z,99769.76
2019-05-20T20:07:06.449Z,99779.56
2019-05-20T20:09:32.586Z,99783.84
2019-05-20T20:11:58.995Z,99782.58
2019-05-20T20:14:25.171Z,99787.84
2019-05-20T20:16:51.555Z,99786.15
2019-05-20T20:19:17.758Z,99789.25
2019-05-20T20:21:44.098Z,99787.93
2019-05-20T20:24:10.379Z,99794.11
2019-05-20T20:26:36.620Z,99795.55
2019-05-20T20:29:02.835Z,99801.63
2019-05-20T20:31:29.225Z,99797.67
2019-05-20T20:33:55.445Z,99800.41
2019-05-20T20:36:21.734Z,99801.28
2019-05-20T20:38:47.960Z,99797.39
2019-05-20T20:41:15.448Z,99798.77
2019-05-20T20:43:41.850Z,99801.94
2019-05-20T20:46:08.033Z,99800.17
2019-05-20T20:48:34.367Z,99796.67
2019-05-20T20:51:00.574Z,99785.86
2019-05-20T20:53:26.822Z,99786.38
2019-05-20T20:55:53.174Z,99789.08
2019-05-20T20:58:19.559Z,99778.61
2019-05-20T21:00:46.000Z,99782.05
2019-05-20T21:03:12.362Z,99776.88
2019-05-20T21:05:38.689Z,99773.34
2019-05-20T21:08:05.005Z,99764.59
2019-05-20T21:10:31.300Z,99766.89
2019-05-20T21:12:57.435Z,99770.89
2019-05-20T21:15:23.681Z,99771.75
2019-05-20T21:17:49.911Z,99775.30
2019-05-20T21:20:17.434Z,99782.47
2019-05-20T21:22:43.791Z,99776.85
2019-05-20T21:25:10.027Z,99777.77
2019-05-20T21:27:36.147Z,99780.06
2019-05-20T21:30:04.967Z,99775.75
2019-05-20T21:32:31.271Z,99787.19
2019-05-20T21:34:58.604Z,99784.16
2019-05-20T21:37:24.787Z,99790.83
2019-05-20T21:39:50.939Z,99784.66
2019-05-20T21:42:17.289Z,99782.64
2019-05-20T21:44:43.629Z,99786.13
2019-05-20T21:47:09.953Z,99779.14
2019-05-20T21:49:36.208Z,99783.13
2019-05-20T21:52:02.483Z,99787.99
2019-05-20T21:54:28.611Z,99792.83
2019-05-20T21:56:54.955Z,99805.57
2019-05-20T21:59:21.340Z,99807.33
2019-05-20T22:01:47.560Z,99816.45
2019-05-20T22:04:13.768Z,99817.36
2019-05-20T22:06:39.911Z,99822.20
2019-05-20T22:09:06.422Z,99828.81
2019-05-20T22:11:32.892Z,99827.50
2019-05-20T22:13:59.067Z,99826.23
2019-05-20T22:16:25.177Z,99826.31
2019-05-20T22:18:51.368Z,99818.47
2019-05-20T22:21:19.398Z,99821.19
2019-05-20T22:23:50.353Z,99815.56
2019-05-20T22:26:16.596Z,99823.92
2019-05-20T22:28:43.079Z,99835.34
2019-05-20T22:31:09.279Z,99824.41
2019-05-20T22:33:41.314Z,99831.39
2019-05-20T22:36:03.788Z,99825.31
2019-05-20T22:38:30.022Z,99832.82
2019-05-20T22:40:56.356Z,99834.20
2019-05-20T22:43:22.780Z,99827.67
2019-05-20T22:45:50.264Z,99826.33
2019-05-20T22:48:16.415Z,99826.36
2019-05-20T22:50:43.016Z,99825.97
2019-05-20T22:53:09.163Z,99834.75
2019-05-20T22:55:35.310Z,99826.52
2019-05-20T22:58:01.599Z,99833.91
2019-05-20T23:00:27.931Z,99824.34
2019-05-20T23:02:54.058Z,99823.95
2019-05-20T23:05:20.425Z,99821.78
2019-05-20T23:07:46.657Z,99825.30
2019-05-20T23:10:12.966Z,99825.41
2019-05-20T23:12:39.082Z,99824.09
2019-05-20T23:15:06.241Z,99823.77
2019-05-20T23:17:32.560Z,99821.59
2019-05-20T23:19:58.679Z,99814.62
2019-05-20T23:22:24.916Z,99818.50
2019-05-20T23:24:51.150Z,99815.44
2019-05-20T23:27:17.295Z,99807.62
2019-05-20T23:29:43.396Z,99805.47
2019-05-20T23:32:09.741Z,99804.60
2019-05-20T23:34:36.020Z,99795.93
2019-05-20T23:37:02.248Z,99787.20
2019-05-20T23:39:29.477Z,99791.58
2019-05-20T23:41:55.608Z,99788.52
2019-05-20T23:44:21.750Z,99785.45
2019-05-20T23:46:47.985Z,99777.61
2019-05-20T23:49:14.121Z,99776.77
2019-05-20T23:51:40.376Z,99780.23
2019-05-20T23:54:06.588Z,99769.78
2019-05-20T23:56:32.972Z,99775.02
2019-05-20T23:58:59.283Z,99775.05
